Glenwood Springs, CO (81601)

3:48 PM MDT on August 29, 2016 (GMT -0600)
CODOT | | Change Station

Elev 5765 ft 39.56 °N, 107.31 °W | Updated 1 hour ago

Scattered Clouds
Scattered Clouds
73.0 °F
Feels Like 73.0 °F
N
2.0
Wind Variable Wind from NE
Gusts 4.0 mph

Today
High -- | Low -- °F
--% Chance of Precip.
Yesterday
High -- | Low -- °F
Precip. -- in
Pressure 30.10 in
Visibility 10.0 miles
Clouds Few 9500 ft
Scattered Clouds 11000 ft
Dew Point 42.0 °F
Humidity 32%
Rainfall in
Snow Depth Not available.
6:35 AM 7:44 PM
Waning Crescent, 7% visible
METAR KRIL 292053Z AUTO 00000KT 10SM FEW095 SCT110 25/05 A3027 RMK AO2 RAB1955E05 SLP191 P0000 60000 T02500050 58020
Pressure 30.10 in
Visibility 10.0 miles
Clouds Few 9500 ft
Scattered Clouds 11000 ft
Dew Point 42.0 °F
Humidity 32%
Rainfall in
Snow Depth Not available.
6:35 AM 7:44 PM
Waning Crescent, 7% visible
METAR KRIL 292053Z AUTO 00000KT 10SM FEW095 SCT110 25/05 A3027 RMK AO2 RAB1955E05 SLP191 P0000 60000 T02500050 58020

10-Day Weather Forecast

Almanac

Astronomy

Aug. 29, 2016 Rise Set
Actual Time
Civil Twilight
Nautical Twilight
Astronomical Twilight
Moon
Length of Visible Light
Length of Day
Tomorrow will be .
, % of the Moon is Illuminated

Today's Extremes

State Highs State Lows

Community

WunderPhotos

Upload Photos

1,935,690 photos uploaded!

WunderBlog® & News

Nearby

Air Quality

  Air Quality AQ Index Pollutant
Not available.

Snow Depth

Station Depth Elevation

Earthquake Activity

City Distance Mag. Time & Date
Minimum magnitude displayed is 2.5.

Coastal Water Temperatures

Place Temperature

Stations

Nearby Weather Stations

Station Location Temp. Windchill Dew Point Humidity Wind Precip. Elev Updated Type
                   

Watches & Warnings

There are currently no watches in effect.